sensor_id;sensor_type;location;lat;lon;timestamp;temperature;humidity
7214;DHT22;3648;50.614;13.830;2023-10-31T00:02:09;13.60;1.00
7214;DHT22;3648;50.614;13.830;2023-10-31T00:04:37;13.60;1.00
7214;DHT22;3648;50.614;13.830;2023-10-31T00:07:05;13.60;1.00
7214;DHT22;3648;50.614;13.830;2023-10-31T00:09:32;13.60;1.00
7214;DHT22;3648;50.614;13.830;2023-10-31T00:11:59;13.60;1.00
7214;DHT22;3648;50.614;13.830;2023-10-31T00:14:26;13.60;1.00
7214;DHT22;3648;50.614;13.830;2023-10-31T00:16:53;13.60;1.00
7214;DHT22;3648;50.614;13.830;2023-10-31T00:19:20;13.60;1.00
7214;DHT22;3648;50.614;13.830;2023-10-31T00:21:49;13.60;1.00
7214;DHT22;3648;50.614;13.830;2023-10-31T00:24:16;13.60;1.00
7214;DHT22;3648;50.614;13.830;2023-10-31T00:26:43;13.60;1.00
7214;DHT22;3648;50.614;13.830;2023-10-31T00:29:10;13.50;1.00
7214;DHT22;3648;50.614;13.830;2023-10-31T00:31:37;13.50;1.00
7214;DHT22;3648;50.614;13.830;2023-10-31T00:34:06;13.50;1.00
7214;DHT22;3648;50.614;13.830;2023-10-31T00:36:33;13.50;1.00
7214;DHT22;3648;50.614;13.830;2023-10-31T00:39:01;13.50;1.00
7214;DHT22;3648;50.614;13.830;2023-10-31T00:41:28;13.50;1.00
7214;DHT22;3648;50.614;13.830;2023-10-31T00:43:55;13.50;1.00
7214;DHT22;3648;50.614;13.830;2023-10-31T00:46:22;13.50;1.00
7214;DHT22;3648;50.614;13.830;2023-10-31T00:48:49;13.50;1.00
7214;DHT22;3648;50.614;13.830;2023-10-31T00:51:16;13.50;1.00
7214;DHT22;3648;50.614;13.830;2023-10-31T00:53:43;13.50;1.00
7214;DHT22;3648;50.614;13.830;2023-10-31T00:56:11;13.40;1.00
7214;DHT22;3648;50.614;13.830;2023-10-31T00:58:38;13.40;1.00
7214;DHT22;3648;50.614;13.830;2023-10-31T01:01:05;13.40;1.00
7214;DHT22;3648;50.614;13.830;2023-10-31T01:03:32;13.40;1.00
7214;DHT22;3648;50.614;13.830;2023-10-31T01:05:59;13.40;1.00
7214;DHT22;3648;50.614;13.830;2023-10-31T01:08:26;13.40;1.00
7214;DHT22;3648;50.614;13.830;2023-10-31T01:10:53;13.30;1.00
7214;DHT22;3648;50.614;13.830;2023-10-31T01:13:21;13.30;1.00
7214;DHT22;3648;50.614;13.830;2023-10-31T01:15:48;13.30;1.00
7214;DHT22;3648;50.614;13.830;2023-10-31T01:18:15;13.20;1.00
7214;DHT22;3648;50.614;13.830;2023-10-31T01:20:42;13.20;1.00
7214;DHT22;3648;50.614;13.830;2023-10-31T01:23:09;13.20;1.00
7214;DHT22;3648;50.614;13.830;2023-10-31T01:25:36;13.20;1.00
7214;DHT22;3648;50.614;13.830;2023-10-31T01:28:03;13.10;1.00
7214;DHT22;3648;50.614;13.830;2023-10-31T01:30:32;13.10;1.00
7214;DHT22;3648;50.614;13.830;2023-10-31T01:32:59;13.10;1.00
7214;DHT22;3648;50.614;13.830;2023-10-31T01:35:26;13.10;1.00
7214;DHT22;3648;50.614;13.830;2023-10-31T01:37:52;13.10;1.00
7214;DHT22;3648;50.614;13.830;2023-10-31T01:40:20;13.00;1.00
7214;DHT22;3648;50.614;13.830;2023-10-31T01:42:47;13.10;1.00
7214;DHT22;3648;50.614;13.830;2023-10-31T01:45:13;13.10;1.00
7214;DHT22;3648;50.614;13.830;2023-10-31T01:47:43;13.00;1.00
7214;DHT22;3648;50.614;13.830;2023-10-31T01:50:12;13.00;1.00
7214;DHT22;3648;50.614;13.830;2023-10-31T01:52:39;13.00;1.00
7214;DHT22;3648;50.614;13.830;2023-10-31T01:55:07;13.00;1.00
7214;DHT22;3648;50.614;13.830;2023-10-31T01:57:34;13.00;1.00
7214;DHT22;3648;50.614;13.830;2023-10-31T02:00:01;13.00;1.00
7214;DHT22;3648;50.614;13.830;2023-10-31T02:02:30;12.90;1.00
7214;DHT22;3648;50.614;13.830;2023-10-31T02:05:00;12.90;1.00
7214;DHT22;3648;50.614;13.830;2023-10-31T02:07:27;12.90;1.00
7214;DHT22;3648;50.614;13.830;2023-10-31T02:09:54;12.90;1.00
7214;DHT22;3648;50.614;13.830;2023-10-31T02:12:34;12.90;1.00
7214;DHT22;3648;50.614;13.830;2023-10-31T02:15:02;12.90;1.00
7214;DHT22;3648;50.614;13.830;2023-10-31T02:17:29;12.90;1.00
7214;DHT22;3648;50.614;13.830;2023-10-31T02:19:56;12.90;1.00
7214;DHT22;3648;50.614;13.830;2023-10-31T02:22:24;12.90;1.00
7214;DHT22;3648;50.614;13.830;2023-10-31T02:24:51;12.90;1.00
7214;DHT22;3648;50.614;13.830;2023-10-31T02:27:18;12.80;1.00
7214;DHT22;3648;50.614;13.830;2023-10-31T02:29:45;12.80;1.00
7214;DHT22;3648;50.614;13.830;2023-10-31T02:32:12;12.80;1.00
7214;DHT22;3648;50.614;13.830;2023-10-31T02:34:39;12.80;1.00
7214;DHT22;3648;50.614;13.830;2023-10-31T02:37:06;12.80;1.00
7214;DHT22;3648;50.614;13.830;2023-10-31T02:39:35;12.80;1.00
7214;DHT22;3648;50.614;13.830;2023-10-31T02:42:02;12.80;1.00
7214;DHT22;3648;50.614;13.830;2023-10-31T02:44:29;12.80;1.00
7214;DHT22;3648;50.614;13.830;2023-10-31T02:46:56;12.80;1.00
7214;DHT22;3648;50.614;13.830;2023-10-31T02:49:23;12.80;1.00
7214;DHT22;3648;50.614;13.830;2023-10-31T02:51:50;12.80;1.00
7214;DHT22;3648;50.614;13.830;2023-10-31T02:54:17;12.70;1.00
7214;DHT22;3648;50.614;13.830;2023-10-31T02:56:45;12.70;1.00
7214;DHT22;3648;50.614;13.830;2023-10-31T02:59:12;12.70;1.00
7214;DHT22;3648;50.614;13.830;2023-10-31T03:01:39;12.70;1.00
7214;DHT22;3648;50.614;13.830;2023-10-31T03:04:06;12.70;1.00
7214;DHT22;3648;50.614;13.830;2023-10-31T03:06:33;12.70;1.00
7214;DHT22;3648;50.614;13.830;2023-10-31T03:09:00;12.70;1.00
7214;DHT22;3648;50.614;13.830;2023-10-31T03:11:27;12.70;1.00
7214;DHT22;3648;50.614;13.830;2023-10-31T03:13:55;12.70;1.00
7214;DHT22;3648;50.614;13.830;2023-10-31T03:16:23;12.70;1.00
7214;DHT22;3648;50.614;13.830;2023-10-31T03:18:50;12.70;1.00
7214;DHT22;3648;50.614;13.830;2023-10-31T03:21:17;12.70;1.00
7214;DHT22;3648;50.614;13.830;2023-10-31T03:23:47;12.70;1.00
7214;DHT22;3648;50.614;13.830;2023-10-31T03:26:15;12.70;1.00
7214;DHT22;3648;50.614;13.830;2023-10-31T03:28:43;12.70;1.00
7214;DHT22;3648;50.614;13.830;2023-10-31T03:31:12;12.70;1.00
7214;DHT22;3648;50.614;13.830;2023-10-31T03:33:39;12.70;1.00
7214;DHT22;3648;50.614;13.830;2023-10-31T03:36:07;12.60;1.00
7214;DHT22;3648;50.614;13.830;2023-10-31T03:38:35;12.60;1.00
7214;DHT22;3648;50.614;13.830;2023-10-31T03:41:02;12.60;1.00
7214;DHT22;3648;50.614;13.830;2023-10-31T03:43:41;12.60;1.00
7214;DHT22;3648;50.614;13.830;2023-10-31T03:46:08;12.60;1.00
7214;DHT22;3648;50.614;13.830;2023-10-31T03:48:37;12.60;1.00
7214;DHT22;3648;50.614;13.830;2023-10-31T03:51:04;12.60;1.00
7214;DHT22;3648;50.614;13.830;2023-10-31T03:53:31;12.60;1.00
7214;DHT22;3648;50.614;13.830;2023-10-31T03:55:59;12.50;1.00
7214;DHT22;3648;50.614;13.830;2023-10-31T03:58:26;12.50;1.00
7214;DHT22;3648;50.614;13.830;2023-10-31T04:00:54;12.50;1.00
7214;DHT22;3648;50.614;13.830;2023-10-31T04:03:21;12.50;1.00
7214;DHT22;3648;50.614;13.830;2023-10-31T04:05:49;12.50;1.00
7214;DHT22;3648;50.614;13.830;2023-10-31T04:08:16;12.50;1.00
7214;DHT22;3648;50.614;13.830;2023-10-31T04:10:43;12.40;1.00
7214;DHT22;3648;50.614;13.830;2023-10-31T04:13:09;12.40;1.00
7214;DHT22;3648;50.614;13.830;2023-10-31T04:15:36;12.40;1.00
7214;DHT22;3648;50.614;13.830;2023-10-31T04:18:03;12.40;1.00
7214;DHT22;3648;50.614;13.830;2023-10-31T04:20:30;12.40;1.00
7214;DHT22;3648;50.614;13.830;2023-10-31T04:22:59;12.40;1.00
7214;DHT22;3648;50.614;13.830;2023-10-31T04:25:26;12.40;1.00
7214;DHT22;3648;50.614;13.830;2023-10-31T04:27:54;12.40;1.00
7214;DHT22;3648;50.614;13.830;2023-10-31T04:30:21;12.40;1.00
7214;DHT22;3648;50.614;13.830;2023-10-31T04:32:48;12.40;1.00
7214;DHT22;3648;50.614;13.830;2023-10-31T04:35:15;12.40;1.00
7214;DHT22;3648;50.614;13.830;2023-10-31T04:37:42;12.40;1.00
7214;DHT22;3648;50.614;13.830;2023-10-31T04:40:12;12.30;1.00
7214;DHT22;3648;50.614;13.830;2023-10-31T04:42:39;12.30;1.00
7214;DHT22;3648;50.614;13.830;2023-10-31T04:45:07;12.30;1.00
7214;DHT22;3648;50.614;13.830;2023-10-31T04:47:34;12.40;1.00
7214;DHT22;3648;50.614;13.830;2023-10-31T04:50:01;12.30;1.00
7214;DHT22;3648;50.614;13.830;2023-10-31T04:52:28;12.30;1.00
7214;DHT22;3648;50.614;13.830;2023-10-31T04:54:55;12.40;1.00
7214;DHT22;3648;50.614;13.830;2023-10-31T04:57:24;12.40;1.00
7214;DHT22;3648;50.614;13.830;2023-10-31T04:59:51;12.40;1.00
7214;DHT22;3648;50.614;13.830;2023-10-31T05:02:21;12.40;1.00
7214;DHT22;3648;50.614;13.830;2023-10-31T05:04:48;12.30;1.00
7214;DHT22;3648;50.614;13.830;2023-10-31T05:07:16;12.30;1.00
7214;DHT22;3648;50.614;13.830;2023-10-31T05:09:43;12.30;1.00
7214;DHT22;3648;50.614;13.830;2023-10-31T05:12:10;12.30;1.00
7214;DHT22;3648;50.614;13.830;2023-10-31T05:14:40;12.30;1.00
7214;DHT22;3648;50.614;13.830;2023-10-31T05:17:07;12.30;1.00
7214;DHT22;3648;50.614;13.830;2023-10-31T05:19:34;12.30;1.00
7214;DHT22;3648;50.614;13.830;2023-10-31T05:22:00;12.30;1.00
7214;DHT22;3648;50.614;13.830;2023-10-31T05:24:28;12.30;1.00
7214;DHT22;3648;50.614;13.830;2023-10-31T05:26:55;12.30;1.00
7214;DHT22;3648;50.614;13.830;2023-10-31T05:29:22;12.30;1.00
7214;DHT22;3648;50.614;13.830;2023-10-31T05:31:50;12.20;1.00
7214;DHT22;3648;50.614;13.830;2023-10-31T05:34:17;12.20;1.00
7214;DHT22;3648;50.614;13.830;2023-10-31T05:36:44;12.30;1.00
7214;DHT22;3648;50.614;13.830;2023-10-31T05:39:11;12.20;1.00
7214;DHT22;3648;50.614;13.830;2023-10-31T05:41:38;12.30;1.00
7214;DHT22;3648;50.614;13.830;2023-10-31T05:44:05;12.30;1.00
7214;DHT22;3648;50.614;13.830;2023-10-31T05:46:32;12.30;1.00
7214;DHT22;3648;50.614;13.830;2023-10-31T05:49:06;12.30;1.00
7214;DHT22;3648;50.614;13.830;2023-10-31T05:51:33;12.30;1.00
7214;DHT22;3648;50.614;13.830;2023-10-31T05:54:01;12.30;1.00
7214;DHT22;3648;50.614;13.830;2023-10-31T05:56:28;12.30;1.00
7214;DHT22;3648;50.614;13.830;2023-10-31T05:58:55;12.40;1.00
7214;DHT22;3648;50.614;13.830;2023-10-31T06:01:22;12.40;1.00
7214;DHT22;3648;50.614;13.830;2023-10-31T06:03:49;12.40;1.00
7214;DHT22;3648;50.614;13.830;2023-10-31T06:06:17;12.40;1.00
7214;DHT22;3648;50.614;13.830;2023-10-31T06:08:44;12.30;1.00
7214;DHT22;3648;50.614;13.830;2023-10-31T06:11:11;12.30;1.00
7214;DHT22;3648;50.614;13.830;2023-10-31T06:13:39;12.40;1.00
7214;DHT22;3648;50.614;13.830;2023-10-31T06:16:06;12.40;1.00
7214;DHT22;3648;50.614;13.830;2023-10-31T06:18:34;12.40;1.00
7214;DHT22;3648;50.614;13.830;2023-10-31T06:21:01;12.40;1.00
7214;DHT22;3648;50.614;13.830;2023-10-31T06:23:29;12.40;1.00
7214;DHT22;3648;50.614;13.830;2023-10-31T06:25:56;12.40;1.00
7214;DHT22;3648;50.614;13.830;2023-10-31T06:28:24;12.40;1.00
7214;DHT22;3648;50.614;13.830;2023-10-31T06:30:50;12.40;1.00
7214;DHT22;3648;50.614;13.830;2023-10-31T06:33:17;12.30;1.00
7214;DHT22;3648;50.614;13.830;2023-10-31T06:35:44;12.30;1.00
7214;DHT22;3648;50.614;13.830;2023-10-31T06:38:11;12.40;1.00
7214;DHT22;3648;50.614;13.830;2023-10-31T06:40:40;12.30;1.00
7214;DHT22;3648;50.614;13.830;2023-10-31T06:43:07;12.40;1.00
7214;DHT22;3648;50.614;13.830;2023-10-31T06:45:33;12.40;1.00
7214;DHT22;3648;50.614;13.830;2023-10-31T06:48:00;12.40;1.00
7214;DHT22;3648;50.614;13.830;2023-10-31T06:50:27;12.40;1.00
7214;DHT22;3648;50.614;13.830;2023-10-31T06:52:54;12.40;1.00
7214;DHT22;3648;50.614;13.830;2023-10-31T06:55:21;12.40;1.00
7214;DHT22;3648;50.614;13.830;2023-10-31T06:57:49;12.30;1.00
7214;DHT22;3648;50.614;13.830;2023-10-31T07:00:17;12.30;1.00
7214;DHT22;3648;50.614;13.830;2023-10-31T07:02:44;12.30;1.00
7214;DHT22;3648;50.614;13.830;2023-10-31T07:05:11;12.30;1.00
7214;DHT22;3648;50.614;13.830;2023-10-31T07:07:37;12.20;1.00
7214;DHT22;3648;50.614;13.830;2023-10-31T07:10:05;12.20;1.00
7214;DHT22;3648;50.614;13.830;2023-10-31T07:12:33;12.20;1.00
7214;DHT22;3648;50.614;13.830;2023-10-31T07:15:01;12.20;1.00
7214;DHT22;3648;50.614;13.830;2023-10-31T07:17:28;12.20;1.00
7214;DHT22;3648;50.614;13.830;2023-10-31T07:19:55;12.10;1.00
7214;DHT22;3648;50.614;13.830;2023-10-31T07:22:23;12.10;1.00
7214;DHT22;3648;50.614;13.830;2023-10-31T07:24:50;12.00;1.00
7214;DHT22;3648;50.614;13.830;2023-10-31T07:27:17;12.00;1.00
7214;DHT22;3648;50.614;13.830;2023-10-31T07:29:44;12.00;1.00
7214;DHT22;3648;50.614;13.830;2023-10-31T07:32:13;12.00;1.00
7214;DHT22;3648;50.614;13.830;2023-10-31T07:34:41;12.00;1.00
7214;DHT22;3648;50.614;13.830;2023-10-31T07:37:09;12.00;1.00
7214;DHT22;3648;50.614;13.830;2023-10-31T07:39:36;12.00;1.00
7214;DHT22;3648;50.614;13.830;2023-10-31T07:42:03;12.00;1.00
7214;DHT22;3648;50.614;13.830;2023-10-31T07:44:30;12.00;1.00
7214;DHT22;3648;50.614;13.830;2023-10-31T07:46:57;12.00;1.00
7214;DHT22;3648;50.614;13.830;2023-10-31T07:49:25;11.90;1.00
7214;DHT22;3648;50.614;13.830;2023-10-31T07:51:52;12.00;1.00
7214;DHT22;3648;50.614;13.830;2023-10-31T07:54:20;11.90;1.00
7214;DHT22;3648;50.614;13.830;2023-10-31T07:56:47;11.90;1.00
7214;DHT22;3648;50.614;13.830;2023-10-31T07:59:14;11.90;1.00
7214;DHT22;3648;50.614;13.830;2023-10-31T08:01:41;12.00;1.00
7214;DHT22;3648;50.614;13.830;2023-10-31T08:04:08;12.00;1.00
7214;DHT22;3648;50.614;13.830;2023-10-31T08:06:36;12.00;1.00
7214;DHT22;3648;50.614;13.830;2023-10-31T08:09:03;12.00;1.00
7214;DHT22;3648;50.614;13.830;2023-10-31T08:11:30;12.10;1.00
7214;DHT22;3648;50.614;13.830;2023-10-31T08:13:58;12.10;1.00
7214;DHT22;3648;50.614;13.830;2023-10-31T08:16:25;12.10;1.00
7214;DHT22;3648;50.614;13.830;2023-10-31T08:18:51;12.10;1.00
7214;DHT22;3648;50.614;13.830;2023-10-31T08:21:18;12.10;1.00
7214;DHT22;3648;50.614;13.830;2023-10-31T08:23:47;12.20;1.00
7214;DHT22;3648;50.614;13.830;2023-10-31T08:26:14;12.20;1.00
7214;DHT22;3648;50.614;13.830;2023-10-31T08:28:41;12.20;1.00
7214;DHT22;3648;50.614;13.830;2023-10-31T08:31:08;12.20;1.00
7214;DHT22;3648;50.614;13.830;2023-10-31T08:33:35;12.20;1.00
7214;DHT22;3648;50.614;13.830;2023-10-31T08:36:02;12.30;1.00
7214;DHT22;3648;50.614;13.830;2023-10-31T08:38:29;12.30;1.00
7214;DHT22;3648;50.614;13.830;2023-10-31T08:40:58;12.40;1.00
7214;DHT22;3648;50.614;13.830;2023-10-31T08:43:25;12.30;1.00
7214;DHT22;3648;50.614;13.830;2023-10-31T08:45:52;12.30;1.00
7214;DHT22;3648;50.614;13.830;2023-10-31T08:48:19;12.40;1.00
7214;DHT22;3648;50.614;13.830;2023-10-31T08:50:46;12.30;1.00
7214;DHT22;3648;50.614;13.830;2023-10-31T08:53:13;12.30;1.00
7214;DHT22;3648;50.614;13.830;2023-10-31T08:55:40;12.20;1.00
7214;DHT22;3648;50.614;13.830;2023-10-31T08:58:11;12.20;1.00
7214;DHT22;3648;50.614;13.830;2023-10-31T09:00:38;12.30;1.00
7214;DHT22;3648;50.614;13.830;2023-10-31T09:03:05;12.30;1.00
7214;DHT22;3648;50.614;13.830;2023-10-31T09:05:32;12.30;1.00
7214;DHT22;3648;50.614;13.830;2023-10-31T09:07:59;12.20;1.00
7214;DHT22;3648;50.614;13.830;2023-10-31T09:10:26;12.20;1.00
7214;DHT22;3648;50.614;13.830;2023-10-31T09:12:53;12.20;1.00
7214;DHT22;3648;50.614;13.830;2023-10-31T09:15:21;12.20;1.00
7214;DHT22;3648;50.614;13.830;2023-10-31T09:17:48;12.20;1.00
7214;DHT22;3648;50.614;13.830;2023-10-31T09:20:15;12.20;1.00
7214;DHT22;3648;50.614;13.830;2023-10-31T09:22:42;12.20;1.00
7214;DHT22;3648;50.614;13.830;2023-10-31T09:25:09;12.20;1.00
7214;DHT22;3648;50.614;13.830;2023-10-31T09:27:37;12.20;1.00
7214;DHT22;3648;50.614;13.830;2023-10-31T09:30:05;12.20;1.00
7214;DHT22;3648;50.614;13.830;2023-10-31T09:32:34;12.20;1.00
7214;DHT22;3648;50.614;13.830;2023-10-31T09:35:01;12.20;1.00
7214;DHT22;3648;50.614;13.830;2023-10-31T09:37:28;12.20;1.00
7214;DHT22;3648;50.614;13.830;2023-10-31T09:39:54;12.20;1.00
7214;DHT22;3648;50.614;13.830;2023-10-31T09:42:21;12.20;1.00
7214;DHT22;3648;50.614;13.830;2023-10-31T09:44:48;12.20;1.00
7214;DHT22;3648;50.614;13.830;2023-10-31T09:47:15;12.20;1.00
7214;DHT22;3648;50.614;13.830;2023-10-31T09:49:44;12.20;1.00
7214;DHT22;3648;50.614;13.830;2023-10-31T09:52:12;12.20;1.00
7214;DHT22;3648;50.614;13.830;2023-10-31T09:54:39;12.20;1.00
7214;DHT22;3648;50.614;13.830;2023-10-31T09:57:08;12.20;1.00
7214;DHT22;3648;50.614;13.830;2023-10-31T09:59:36;12.20;1.00
7214;DHT22;3648;50.614;13.830;2023-10-31T10:02:03;12.20;1.00
7214;DHT22;3648;50.614;13.830;2023-10-31T10:04:31;12.30;1.00
7214;DHT22;3648;50.614;13.830;2023-10-31T10:07:03;12.30;1.00
7214;DHT22;3648;50.614;13.830;2023-10-31T10:09:30;12.30;1.00
7214;DHT22;3648;50.614;13.830;2023-10-31T10:11:59;12.40;1.00
7214;DHT22;3648;50.614;13.830;2023-10-31T10:14:27;12.40;1.00
7214;DHT22;3648;50.614;13.830;2023-10-31T10:16:56;12.40;1.00
7214;DHT22;3648;50.614;13.830;2023-10-31T10:19:24;12.40;1.00
7214;DHT22;3648;50.614;13.830;2023-10-31T10:21:52;12.40;1.00
7214;DHT22;3648;50.614;13.830;2023-10-31T10:24:22;12.40;1.00
7214;DHT22;3648;50.614;13.830;2023-10-31T10:26:50;12.40;1.00
7214;DHT22;3648;50.614;13.830;2023-10-31T10:29:18;12.40;1.00
7214;DHT22;3648;50.614;13.830;2023-10-31T10:31:44;12.40;1.00
7214;DHT22;3648;50.614;13.830;2023-10-31T10:34:14;12.40;1.00
7214;DHT22;3648;50.614;13.830;2023-10-31T10:36:47;12.40;1.00
7214;DHT22;3648;50.614;13.830;2023-10-31T10:39:17;12.40;99.90
7214;DHT22;3648;50.614;13.830;2023-10-31T10:41:49;12.40;1.00
7214;DHT22;3648;50.614;13.830;2023-10-31T10:44:16;12.40;99.90
7214;DHT22;3648;50.614;13.830;2023-10-31T10:46:50;12.50;1.00
7214;DHT22;3648;50.614;13.830;2023-10-31T10:49:24;12.50;1.00
7214;DHT22;3648;50.614;13.830;2023-10-31T10:51:53;12.50;99.90
7214;DHT22;3648;50.614;13.830;2023-10-31T10:54:32;12.50;99.90
7214;DHT22;3648;50.614;13.830;2023-10-31T10:57:12;12.50;99.90
7214;DHT22;3648;50.614;13.830;2023-10-31T10:59:42;12.50;99.90
7214;DHT22;3648;50.614;13.830;2023-10-31T11:02:10;12.50;99.90
7214;DHT22;3648;50.614;13.830;2023-10-31T11:04:39;12.60;99.90
7214;DHT22;3648;50.614;13.830;2023-10-31T11:07:09;12.60;99.90
7214;DHT22;3648;50.614;13.830;2023-10-31T11:09:37;12.60;99.90
7214;DHT22;3648;50.614;13.830;2023-10-31T11:12:07;12.60;99.90
7214;DHT22;3648;50.614;13.830;2023-10-31T11:14:34;12.60;99.90
7214;DHT22;3648;50.614;13.830;2023-10-31T11:17:09;12.70;99.90
7214;DHT22;3648;50.614;13.830;2023-10-31T11:19:38;12.70;99.90
7214;DHT22;3648;50.614;13.830;2023-10-31T11:22:05;12.70;99.90
7214;DHT22;3648;50.614;13.830;2023-10-31T11:24:37;12.70;99.90
7214;DHT22;3648;50.614;13.830;2023-10-31T11:27:07;12.70;99.90
7214;DHT22;3648;50.614;13.830;2023-10-31T11:29:36;12.70;99.90
7214;DHT22;3648;50.614;13.830;2023-10-31T11:32:04;12.70;99.90
7214;DHT22;3648;50.614;13.830;2023-10-31T11:34:37;12.70;99.90
7214;DHT22;3648;50.614;13.830;2023-10-31T11:37:24;12.70;99.90
7214;DHT22;3648;50.614;13.830;2023-10-31T11:40:17;12.70;99.90
7214;DHT22;3648;50.614;13.830;2023-10-31T11:42:47;12.70;99.90
7214;DHT22;3648;50.614;13.830;2023-10-31T11:45:25;12.70;99.90
7214;DHT22;3648;50.614;13.830;2023-10-31T11:47:53;12.70;99.90
7214;DHT22;3648;50.614;13.830;2023-10-31T11:50:21;12.80;99.90
7214;DHT22;3648;50.614;13.830;2023-10-31T11:53:02;12.80;99.90
7214;DHT22;3648;50.614;13.830;2023-10-31T11:55:30;12.70;99.90
7214;DHT22;3648;50.614;13.830;2023-10-31T11:58:18;12.80;99.90
7214;DHT22;3648;50.614;13.830;2023-10-31T12:00:45;12.80;99.90
7214;DHT22;3648;50.614;13.830;2023-10-31T12:03:15;12.80;99.90
7214;DHT22;3648;50.614;13.830;2023-10-31T12:05:51;12.80;99.90
7214;DHT22;3648;50.614;13.830;2023-10-31T12:08:27;12.80;99.90
7214;DHT22;3648;50.614;13.830;2023-10-31T12:11:06;12.80;99.90
7214;DHT22;3648;50.614;13.830;2023-10-31T12:13:36;12.80;99.90
7214;DHT22;3648;50.614;13.830;2023-10-31T12:16:04;12.80;99.90
7214;DHT22;3648;50.614;13.830;2023-10-31T12:18:31;12.90;99.90
7214;DHT22;3648;50.614;13.830;2023-10-31T12:20:58;12.90;99.90
7214;DHT22;3648;50.614;13.830;2023-10-31T12:23:25;13.00;99.90
7214;DHT22;3648;50.614;13.830;2023-10-31T12:25:53;13.00;99.90
7214;DHT22;3648;50.614;13.830;2023-10-31T12:28:21;13.10;99.90
7214;DHT22;3648;50.614;13.830;2023-10-31T12:30:51;13.00;99.90
7214;DHT22;3648;50.614;13.830;2023-10-31T12:33:20;13.10;99.90
7214;DHT22;3648;50.614;13.830;2023-10-31T12:35:51;13.10;99.90
7214;DHT22;3648;50.614;13.830;2023-10-31T12:38:19;13.00;99.90
7214;DHT22;3648;50.614;13.830;2023-10-31T12:40:46;13.00;99.90
7214;DHT22;3648;50.614;13.830;2023-10-31T12:43:16;13.00;99.90
7214;DHT22;3648;50.614;13.830;2023-10-31T12:45:43;13.00;99.90
7214;DHT22;3648;50.614;13.830;2023-10-31T12:48:12;13.00;99.90
7214;DHT22;3648;50.614;13.830;2023-10-31T12:50:39;13.00;99.90
7214;DHT22;3648;50.614;13.830;2023-10-31T12:53:06;13.00;99.90
7214;DHT22;3648;50.614;13.830;2023-10-31T12:55:38;13.00;99.90
7214;DHT22;3648;50.614;13.830;2023-10-31T12:58:06;13.00;99.90
7214;DHT22;3648;50.614;13.830;2023-10-31T13:00:36;13.00;99.90
7214;DHT22;3648;50.614;13.830;2023-10-31T13:03:05;12.90;99.90
7214;DHT22;3648;50.614;13.830;2023-10-31T13:05:34;12.90;99.90
7214;DHT22;3648;50.614;13.830;2023-10-31T13:08:01;12.90;99.90
7214;DHT22;3648;50.614;13.830;2023-10-31T13:10:30;12.90;99.90
7214;DHT22;3648;50.614;13.830;2023-10-31T13:12:58;12.80;99.90
7214;DHT22;3648;50.614;13.830;2023-10-31T13:15:25;12.80;99.90
7214;DHT22;3648;50.614;13.830;2023-10-31T13:17:52;12.80;99.90
7214;DHT22;3648;50.614;13.830;2023-10-31T13:20:20;12.70;99.90
7214;DHT22;3648;50.614;13.830;2023-10-31T13:22:49;12.70;99.90
7214;DHT22;3648;50.614;13.830;2023-10-31T13:25:16;12.60;99.90
7214;DHT22;3648;50.614;13.830;2023-10-31T13:27:44;12.60;99.90
7214;DHT22;3648;50.614;13.830;2023-10-31T13:30:16;12.60;99.90
7214;DHT22;3648;50.614;13.830;2023-10-31T13:32:44;12.50;99.90
7214;DHT22;3648;50.614;13.830;2023-10-31T13:35:11;12.50;99.90
7214;DHT22;3648;50.614;13.830;2023-10-31T13:37:39;12.50;99.90
7214;DHT22;3648;50.614;13.830;2023-10-31T13:40:08;12.50;99.90
7214;DHT22;3648;50.614;13.830;2023-10-31T13:42:36;12.40;99.90
7214;DHT22;3648;50.614;13.830;2023-10-31T13:45:03;12.50;99.90
7214;DHT22;3648;50.614;13.830;2023-10-31T13:47:30;12.40;99.90
7214;DHT22;3648;50.614;13.830;2023-10-31T13:49:58;12.40;99.90
7214;DHT22;3648;50.614;13.830;2023-10-31T13:52:25;12.40;99.90
7214;DHT22;3648;50.614;13.830;2023-10-31T13:54:52;12.30;99.90
7214;DHT22;3648;50.614;13.830;2023-10-31T13:57:20;12.30;99.90
7214;DHT22;3648;50.614;13.830;2023-10-31T13:59:47;12.30;99.90
7214;DHT22;3648;50.614;13.830;2023-10-31T14:02:14;12.30;99.90
7214;DHT22;3648;50.614;13.830;2023-10-31T14:04:41;12.30;99.90
7214;DHT22;3648;50.614;13.830;2023-10-31T14:07:08;12.30;99.90
7214;DHT22;3648;50.614;13.830;2023-10-31T14:09:35;12.30;99.90
7214;DHT22;3648;50.614;13.830;2023-10-31T14:12:03;12.30;99.90
7214;DHT22;3648;50.614;13.830;2023-10-31T14:14:31;12.30;99.90
7214;DHT22;3648;50.614;13.830;2023-10-31T14:16:58;12.30;99.90
7214;DHT22;3648;50.614;13.830;2023-10-31T14:19:25;12.20;99.90
7214;DHT22;3648;50.614;13.830;2023-10-31T14:21:52;12.20;99.90
7214;DHT22;3648;50.614;13.830;2023-10-31T14:24:20;12.20;99.90
7214;DHT22;3648;50.614;13.830;2023-10-31T14:26:47;12.20;99.90
7214;DHT22;3648;50.614;13.830;2023-10-31T14:29:14;12.20;99.90
7214;DHT22;3648;50.614;13.830;2023-10-31T14:31:43;12.20;99.90
7214;DHT22;3648;50.614;13.830;2023-10-31T14:34:13;12.10;99.90
7214;DHT22;3648;50.614;13.830;2023-10-31T14:36:40;12.10;99.90
7214;DHT22;3648;50.614;13.830;2023-10-31T14:39:07;12.10;99.90
7214;DHT22;3648;50.614;13.830;2023-10-31T14:41:35;12.00;99.90
7214;DHT22;3648;50.614;13.830;2023-10-31T14:44:02;12.00;99.90
7214;DHT22;3648;50.614;13.830;2023-10-31T14:46:30;12.00;99.90
7214;DHT22;3648;50.614;13.830;2023-10-31T14:48:59;12.00;99.90
7214;DHT22;3648;50.614;13.830;2023-10-31T14:51:26;12.00;99.90
7214;DHT22;3648;50.614;13.830;2023-10-31T14:53:53;12.00;99.90
7214;DHT22;3648;50.614;13.830;2023-10-31T14:56:20;12.00;99.90
7214;DHT22;3648;50.614;13.830;2023-10-31T14:58:48;12.00;99.90
7214;DHT22;3648;50.614;13.830;2023-10-31T15:01:14;12.00;99.90
7214;DHT22;3648;50.614;13.830;2023-10-31T15:03:42;11.90;99.90
7214;DHT22;3648;50.614;13.830;2023-10-31T15:06:10;11.90;99.90
7214;DHT22;3648;50.614;13.830;2023-10-31T15:08:37;11.90;99.90
7214;DHT22;3648;50.614;13.830;2023-10-31T15:11:04;11.90;99.90
7214;DHT22;3648;50.614;13.830;2023-10-31T15:13:31;12.00;99.90
7214;DHT22;3648;50.614;13.830;2023-10-31T15:15:58;11.90;99.90
7214;DHT22;3648;50.614;13.830;2023-10-31T15:18:25;12.00;99.90
7214;DHT22;3648;50.614;13.830;2023-10-31T15:20:52;11.90;99.90
7214;DHT22;3648;50.614;13.830;2023-10-31T15:23:24;12.00;99.90
7214;DHT22;3648;50.614;13.830;2023-10-31T15:25:52;11.90;99.90
7214;DHT22;3648;50.614;13.830;2023-10-31T15:28:19;11.80;99.90
7214;DHT22;3648;50.614;13.830;2023-10-31T15:30:46;11.80;99.90
7214;DHT22;3648;50.614;13.830;2023-10-31T15:33:13;11.70;99.90
7214;DHT22;3648;50.614;13.830;2023-10-31T15:35:40;11.70;99.90
7214;DHT22;3648;50.614;13.830;2023-10-31T15:38:08;11.70;99.90
7214;DHT22;3648;50.614;13.830;2023-10-31T15:40:36;11.70;99.90
7214;DHT22;3648;50.614;13.830;2023-10-31T15:43:03;11.60;99.90
7214;DHT22;3648;50.614;13.830;2023-10-31T15:45:30;11.60;99.90
7214;DHT22;3648;50.614;13.830;2023-10-31T15:48:05;11.60;99.90
7214;DHT22;3648;50.614;13.830;2023-10-31T15:50:34;11.60;99.90
7214;DHT22;3648;50.614;13.830;2023-10-31T15:53:00;11.60;99.90
7214;DHT22;3648;50.614;13.830;2023-10-31T15:55:28;11.60;99.90
7214;DHT22;3648;50.614;13.830;2023-10-31T15:57:56;11.50;99.90
7214;DHT22;3648;50.614;13.830;2023-10-31T16:00:24;11.50;99.90
7214;DHT22;3648;50.614;13.830;2023-10-31T16:02:52;11.50;99.90